createdAt,value
2019-04-04T00:03:44.811Z,10.40
2019-04-04T00:07:45.691Z,10.40
2019-04-04T00:11:46.563Z,10.70
2019-04-04T00:15:47.767Z,10.70
2019-04-04T00:19:48.689Z,10.80
2019-04-04T00:23:49.630Z,11.40
2019-04-04T00:27:50.722Z,11.10
2019-04-04T00:31:51.619Z,11.30
2019-04-04T00:35:52.486Z,10.00
2019-04-04T00:39:53.475Z,10.50
2019-04-04T00:43:54.316Z,10.80
2019-04-04T00:47:55.205Z,11.00
2019-04-04T00:51:56.061Z,10.60
2019-04-04T00:55:56.960Z,10.70
2019-04-04T00:59:57.806Z,10.90
2019-04-04T01:04:00.350Z,11.10
2019-04-04T01:08:01.616Z,11.00
2019-04-04T01:12:03.093Z,11.10
2019-04-04T01:16:04.295Z,11.00
2019-04-04T01:20:07.036Z,11.00
2019-04-04T01:24:07.923Z,9.90
2019-04-04T01:28:08.824Z,10.50
2019-04-04T01:32:09.691Z,10.40
2019-04-04T01:36:10.563Z,10.20
2019-04-04T01:40:11.417Z,9.70
2019-04-04T01:44:12.271Z,10.50
2019-04-04T01:48:13.175Z,9.70
2019-04-04T01:52:14.061Z,10.50
2019-04-04T01:56:14.905Z,10.60
2019-04-04T02:00:16.288Z,10.60
2019-04-04T02:04:17.163Z,9.90
2019-04-04T02:08:18.188Z,9.50
2019-04-04T02:12:19.157Z,8.80
2019-04-04T02:16:20.043Z,9.60
2019-04-04T02:20:20.927Z,9.40
2019-04-04T02:24:21.804Z,8.90
2019-04-04T02:28:22.785Z,9.70
2019-04-04T02:32:26.866Z,10.10
2019-04-04T02:36:28.139Z,9.80
2019-04-04T02:40:29.016Z,9.40
2019-04-04T02:44:32.153Z,8.80
2019-04-04T02:48:32.907Z,9.20
2019-04-04T02:52:33.860Z,9.50
2019-04-04T02:56:35.984Z,9.10
2019-04-04T03:00:37.232Z,8.20
2019-04-04T03:04:38.143Z,7.00
2019-04-04T03:08:39.102Z,9.00
2019-04-04T03:12:40.092Z,9.70
2019-04-04T03:16:41.203Z,10.00
2019-04-04T03:20:42.079Z,10.10
2019-04-04T03:24:45.120Z,10.30
2019-04-04T03:28:46.008Z,10.10
2019-04-04T03:32:51.996Z,10.10
2019-04-04T03:36:49.922Z,10.10
2019-04-04T03:40:50.955Z,10.20
2019-04-04T03:44:53.441Z,10.20
2019-04-04T03:48:55.091Z,10.30
2019-04-04T03:52:56.174Z,10.40
2019-04-04T03:56:57.185Z,10.30
2019-04-04T04:00:58.234Z,10.20
2019-04-04T04:05:00.875Z,10.50
2019-04-04T04:09:03.285Z,10.00
2019-04-04T04:13:04.439Z,8.60
2019-04-04T04:17:05.342Z,7.50
2019-04-04T04:21:09.732Z,6.30
2019-04-04T04:25:11.491Z,7.30
2019-04-04T04:29:12.479Z,8.60
2019-04-04T04:33:13.343Z,9.50
2019-04-04T04:37:14.221Z,10.00
2019-04-04T04:41:15.111Z,10.20
2019-04-04T04:45:16.325Z,9.80
2019-04-04T04:49:17.220Z,10.00
2019-04-04T04:53:18.910Z,9.70
2019-04-04T04:57:29.425Z,10.30
2019-04-04T05:01:23.449Z,10.40
2019-04-04T05:05:24.391Z,9.30
2019-04-04T05:09:25.285Z,9.60
2019-04-04T05:13:28.687Z,9.70
2019-04-04T05:17:28.971Z,9.90
2019-04-04T05:21:29.855Z,10.10
2019-04-04T05:25:31.313Z,9.80
2019-04-04T05:29:32.884Z,7.50
2019-04-04T05:33:33.761Z,7.80
2019-04-04T05:37:37.867Z,7.20
2019-04-04T05:41:37.622Z,8.60
2019-04-04T05:45:38.878Z,9.40
2019-04-04T05:49:39.776Z,10.00
2019-04-04T05:53:40.645Z,9.90
2019-04-04T05:57:41.508Z,9.80
2019-04-04T06:01:42.396Z,10.00
2019-04-04T06:05:43.388Z,10.20
2019-04-04T06:09:46.873Z,9.90
2019-04-04T06:13:47.012Z,10.20
2019-04-04T06:17:47.896Z,10.00
2019-04-04T06:21:49.997Z,10.20
2019-04-04T06:25:51.468Z,10.30
2019-04-04T06:29:52.429Z,10.30
2019-04-04T06:33:53.289Z,9.80
2019-04-04T06:37:55.072Z,9.70
2019-04-04T06:41:56.398Z,9.70
2019-04-04T06:45:57.254Z,10.00
2019-04-04T06:49:58.127Z,10.10
2019-04-04T06:53:59.608Z,10.20
2019-04-04T06:58:00.680Z,10.20
2019-04-04T07:02:01.818Z,9.70
2019-04-04T07:06:02.798Z,10.00
2019-04-04T07:10:04.285Z,10.30
2019-04-04T07:14:05.269Z,9.80
2019-04-04T07:18:06.392Z,10.00
2019-04-04T07:22:07.418Z,10.70
2019-04-04T07:26:10.971Z,10.40
2019-04-04T07:30:11.690Z,10.20
2019-04-04T07:34:13.736Z,9.80
2019-04-04T07:38:15.265Z,9.20
2019-04-04T07:42:16.315Z,9.00
2019-04-04T07:46:17.340Z,9.20
2019-04-04T07:50:18.378Z,9.30
2019-04-04T07:54:19.254Z,10.00
2019-04-04T07:58:20.134Z,9.60
2019-04-04T08:02:21.016Z,10.00
2019-04-04T08:06:21.942Z,9.60
2019-04-04T08:10:22.909Z,9.60
2019-04-04T08:14:23.815Z,9.50
2019-04-04T08:18:24.823Z,9.40
2019-04-04T08:22:25.694Z,9.50
2019-04-04T08:26:26.647Z,8.80
2019-04-04T08:30:27.720Z,9.50
2019-04-04T08:34:29.033Z,9.80
2019-04-04T08:38:30.079Z,9.30
2019-04-04T08:42:30.984Z,9.10
2019-04-04T08:46:31.870Z,9.40
2019-04-04T08:50:32.751Z,9.50
2019-04-04T08:54:33.637Z,9.70
2019-04-04T08:58:34.504Z,8.60
2019-04-04T09:02:35.613Z,8.80
2019-04-04T09:06:36.492Z,9.30
2019-04-04T09:10:37.437Z,8.90
2019-04-04T09:14:40.973Z,8.70
2019-04-04T09:18:41.104Z,8.90
2019-04-04T09:22:42.093Z,9.40
2019-04-04T09:26:42.959Z,9.80
2019-04-04T09:30:43.828Z,8.50
2019-04-04T09:34:44.741Z,9.10
2019-04-04T09:38:45.600Z,9.40
2019-04-04T09:42:46.468Z,9.00
2019-04-04T09:46:47.557Z,9.20
2019-04-04T09:50:48.423Z,9.00
2019-04-04T09:54:49.296Z,8.40
2019-04-04T09:58:50.162Z,8.30
2019-04-04T10:02:51.068Z,8.10
2019-04-04T10:06:51.960Z,8.90
2019-04-04T10:10:52.867Z,8.20
2019-04-04T10:14:53.815Z,8.90
2019-04-04T10:18:54.707Z,9.00
2019-04-04T10:22:55.652Z,8.70
2019-04-04T10:26:56.544Z,8.50
2019-04-04T10:30:57.538Z,8.50
2019-04-04T10:34:58.411Z,8.80
2019-04-04T10:38:59.392Z,8.40
2019-04-04T10:43:00.281Z,8.30
2019-04-04T10:47:01.137Z,8.30
2019-04-04T10:51:02.128Z,7.80
2019-04-04T10:55:05.080Z,8.10
2019-04-04T10:59:06.143Z,8.30
2019-04-04T11:03:07.041Z,8.00
2019-04-04T11:07:08.018Z,8.40
2019-04-04T11:11:08.993Z,9.20
2019-04-04T11:15:10.210Z,9.10
2019-04-04T11:19:11.142Z,8.40
2019-04-04T11:23:12.103Z,8.20
2019-04-04T11:27:13.116Z,8.70
2019-04-04T11:31:14.100Z,9.10
2019-04-04T11:35:14.988Z,8.70
2019-04-04T11:39:15.862Z,8.60
2019-04-04T11:43:16.716Z,8.60
2019-04-04T11:47:17.617Z,8.60
2019-04-04T11:51:18.478Z,9.10
2019-04-04T11:55:19.478Z,8.80
2019-04-04T11:59:20.375Z,8.90
2019-04-04T12:03:22.443Z,8.80
2019-04-04T12:07:23.338Z,8.90
2019-04-04T12:11:24.516Z,9.10
2019-04-04T12:15:25.576Z,8.10
2019-04-04T12:19:26.456Z,8.10
2019-04-04T12:23:27.403Z,8.20
2019-04-04T12:27:28.428Z,8.30
2019-04-04T12:31:29.411Z,9.00
2019-04-04T12:35:30.287Z,9.40
2019-04-04T12:39:32.252Z,9.40
2019-04-04T12:43:33.720Z,8.00
2019-04-04T12:47:34.712Z,8.60
2019-04-04T12:51:35.649Z,8.30
2019-04-04T12:55:36.512Z,8.70
2019-04-04T12:59:37.381Z,9.30
2019-04-04T13:03:38.247Z,8.90
2019-04-04T13:07:39.144Z,9.10
2019-04-04T13:11:40.023Z,8.60
2019-04-04T13:15:41.623Z,9.70
2019-04-04T13:19:42.512Z,9.20
2019-04-04T13:23:43.398Z,9.50
2019-04-04T13:27:44.390Z,8.80
2019-04-04T13:31:45.260Z,9.00
2019-04-04T13:35:47.091Z,9.50
2019-04-04T13:39:48.071Z,9.60
2019-04-04T13:43:48.970Z,9.10
2019-04-04T13:47:50.035Z,8.20
2019-04-04T13:51:53.058Z,9.10
2019-04-04T13:55:53.761Z,9.30
2019-04-04T13:59:54.671Z,9.70
2019-04-04T14:03:55.545Z,9.40
2019-04-04T14:08:00.292Z,9.10
2019-04-04T14:11:59.365Z,9.20
2019-04-04T14:16:00.372Z,9.30
2019-04-04T14:20:01.267Z,8.90
2019-04-04T14:24:12.354Z,8.60
2019-04-04T14:28:08.310Z,8.70
2019-04-04T14:32:09.229Z,9.50
2019-04-04T14:36:10.194Z,9.20
2019-04-04T14:40:11.435Z,9.20
2019-04-04T14:44:15.425Z,8.40
2019-04-04T14:48:15.382Z,8.80
2019-04-04T14:52:19.407Z,8.90
2019-04-04T14:56:19.386Z,9.00
2019-04-04T15:00:20.948Z,9.10
2019-04-04T15:04:26.627Z,9.30
2019-04-04T15:08:27.737Z,9.10
2019-04-04T15:12:28.622Z,9.50
2019-04-04T15:16:29.525Z,9.80
2019-04-04T15:20:30.433Z,10.40
2019-04-04T15:24:31.541Z,9.10
2019-04-04T15:28:32.592Z,9.10
2019-04-04T15:32:33.502Z,9.10
2019-04-04T15:36:35.487Z,8.60
2019-04-04T15:40:37.365Z,9.40
2019-04-04T15:44:38.381Z,9.10
2019-04-04T15:48:39.275Z,8.20
2019-04-04T15:52:40.266Z,7.70
2019-04-04T15:56:42.714Z,8.70
2019-04-04T16:00:44.022Z,9.10
2019-04-04T16:04:44.998Z,8.90
2019-04-04T16:08:46.122Z,9.10
2019-04-04T16:12:47.226Z,9.10
2019-04-04T16:16:48.275Z,8.60
2019-04-04T16:20:49.472Z,8.30
2019-04-04T16:24:50.779Z,8.50
2019-04-04T16:28:51.661Z,8.80
2019-04-04T16:32:52.544Z,8.80
2019-04-04T16:36:53.473Z,8.60
2019-04-04T16:40:54.405Z,8.90
2019-04-04T16:44:55.386Z,8.70
2019-04-04T16:48:56.227Z,8.80
2019-04-04T16:52:57.229Z,9.40
2019-04-04T16:56:58.140Z,9.00
2019-04-04T17:00:59.023Z,9.10
2019-04-04T17:05:00.062Z,9.80
2019-04-04T17:09:01.076Z,9.50
2019-04-04T17:13:01.994Z,9.80
2019-04-04T17:17:03.220Z,9.30
2019-04-04T17:21:04.310Z,8.80
2019-04-04T17:25:05.374Z,9.00
2019-04-04T17:29:06.346Z,8.60
2019-04-04T17:33:07.455Z,8.70
2019-04-04T17:37:08.985Z,8.50
2019-04-04T17:41:10.153Z,8.80
2019-04-04T17:45:11.610Z,9.30
2019-04-04T17:49:12.654Z,8.80
2019-04-04T17:53:14.339Z,8.20
2019-04-04T17:57:15.601Z,7.90
2019-04-04T18:01:16.847Z,7.90
2019-04-04T18:05:18.020Z,7.90
2019-04-04T18:09:30.880Z,8.40
2019-04-04T18:13:21.825Z,8.50
2019-04-04T18:17:22.934Z,8.60
2019-04-04T18:21:23.995Z,9.00
2019-04-04T18:25:25.242Z,9.80
2019-04-04T18:29:26.379Z,9.40
2019-04-04T18:33:28.740Z,9.10
2019-04-04T18:37:30.101Z,9.00
2019-04-04T18:41:31.183Z,9.00
2019-04-04T18:45:32.184Z,9.30
2019-04-04T18:49:33.145Z,8.10
2019-04-04T18:53:34.078Z,8.70
2019-04-04T18:57:34.948Z,9.00
2019-04-04T19:01:36.035Z,9.10
2019-04-04T19:05:37.560Z,8.50
2019-04-04T19:09:38.719Z,8.80
2019-04-04T19:13:44.588Z,8.20
2019-04-04T19:17:42.739Z,8.60
2019-04-04T19:21:43.855Z,9.10
2019-04-04T19:25:44.913Z,8.50
2019-04-04T19:29:45.920Z,8.90
2019-04-04T19:33:47.101Z,8.80
2019-04-04T19:37:59.478Z,9.20
2019-04-04T19:41:52.659Z,9.00
2019-04-04T19:45:53.644Z,8.60
2019-04-04T19:49:54.728Z,9.20
2019-04-04T19:53:55.745Z,9.00
2019-04-04T19:57:56.690Z,8.60
2019-04-04T20:01:57.652Z,8.90
2019-04-04T20:05:58.619Z,7.80
2019-04-04T20:09:59.618Z,8.00
2019-04-04T20:14:00.517Z,8.20
2019-04-04T20:18:01.419Z,8.60
2019-04-04T20:22:02.504Z,9.30
2019-04-04T20:26:03.478Z,8.60
2019-04-04T20:30:09.336Z,9.00
2019-04-04T20:34:10.444Z,8.90
2019-04-04T20:38:12.602Z,9.10
2019-04-04T20:42:13.639Z,8.30
2019-04-04T20:46:14.612Z,8.70
2019-04-04T20:50:15.613Z,9.10
2019-04-04T20:54:16.824Z,8.70
2019-04-04T20:58:17.808Z,8.90
2019-04-04T21:02:18.787Z,9.20
2019-04-04T21:06:19.688Z,8.70
2019-04-04T21:10:20.686Z,8.10
2019-04-04T21:14:21.677Z,8.20
2019-04-04T21:18:22.582Z,8.70
2019-04-04T21:22:27.749Z,8.80
2019-04-04T21:26:26.211Z,8.80
2019-04-04T21:30:27.098Z,8.80
2019-04-04T21:34:27.993Z,8.50
2019-04-04T21:38:28.888Z,9.10
2019-04-04T21:42:29.742Z,9.50
2019-04-04T21:46:30.606Z,9.40
2019-04-04T21:50:31.501Z,9.20
2019-04-04T21:54:32.400Z,8.60
2019-04-04T21:58:33.267Z,9.20
2019-04-04T22:02:34.342Z,8.20
2019-04-04T22:06:35.326Z,8.40
2019-04-04T22:10:36.423Z,8.20
2019-04-04T22:14:37.295Z,8.60
2019-04-04T22:18:38.205Z,8.90
2019-04-04T22:22:39.178Z,8.40
2019-04-04T22:26:40.093Z,8.60
2019-04-04T22:30:42.557Z,8.60
2019-04-04T22:34:43.414Z,9.40
2019-04-04T22:38:44.330Z,9.50
2019-04-04T22:42:45.303Z,8.90
2019-04-04T22:46:46.273Z,9.00
2019-04-04T22:50:47.172Z,9.30
2019-04-04T22:54:48.142Z,8.70
2019-04-04T22:58:49.121Z,8.60
2019-04-04T23:02:50.088Z,8.80
2019-04-04T23:06:51.036Z,8.90
2019-04-04T23:10:51.923Z,9.30
2019-04-04T23:14:52.802Z,8.80
2019-04-04T23:18:53.699Z,9.20
2019-04-04T23:22:54.567Z,9.90
2019-04-04T23:26:55.422Z,10.10
2019-04-04T23:30:56.422Z,10.20
2019-04-04T23:34:57.295Z,10.00
2019-04-04T23:38:58.255Z,9.80
2019-04-04T23:42:59.227Z,10.10
2019-04-04T23:47:00.146Z,10.30
2019-04-04T23:51:01.112Z,9.80
2019-04-04T23:55:03.397Z,9.30
2019-04-04T23:59:04.372Z,9.00
